sensor_id;sensor_type;location;lat;lon;timestamp;P1;durP1;ratioP1;P2;durP2;ratioP2
17790;SDS011;9019;48.132;-1.210;2022-09-02T00:01:22;10.68;;;8.60;;
17790;SDS011;9019;48.132;-1.210;2022-09-02T00:03:51;8.63;;;5.50;;
17790;SDS011;9019;48.132;-1.210;2022-09-02T00:06:19;8.93;;;5.37;;
17790;SDS011;9019;48.132;-1.210;2022-09-02T00:08:47;9.77;;;5.13;;
17790;SDS011;9019;48.132;-1.210;2022-09-02T00:11:19;8.67;;;4.63;;
17790;SDS011;9019;48.132;-1.210;2022-09-02T00:13:48;5.27;;;3.43;;
17790;SDS011;9019;48.132;-1.210;2022-09-02T00:16:16;5.03;;;3.17;;
17790;SDS011;9019;48.132;-1.210;2022-09-02T00:18:43;4.57;;;3.30;;
17790;SDS011;9019;48.132;-1.210;2022-09-02T00:21:12;4.27;;;3.10;;
17790;SDS011;9019;48.132;-1.210;2022-09-02T00:23:40;4.80;;;3.50;;
17790;SDS011;9019;48.132;-1.210;2022-09-02T00:26:09;8.07;;;3.50;;
17790;SDS011;9019;48.132;-1.210;2022-09-02T00:28:39;3.87;;;3.20;;
17790;SDS011;9019;48.132;-1.210;2022-09-02T00:31:06;7.00;;;3.30;;
17790;SDS011;9019;48.132;-1.210;2022-09-02T00:33:33;6.30;;;3.47;;
17790;SDS011;9019;48.132;-1.210;2022-09-02T00:36:02;7.33;;;3.67;;
17790;SDS011;9019;48.132;-1.210;2022-09-02T00:38:31;5.07;;;3.40;;
17790;SDS011;9019;48.132;-1.210;2022-09-02T00:41:00;7.37;;;3.90;;
17790;SDS011;9019;48.132;-1.210;2022-09-02T00:43:37;7.87;;;3.60;;
17790;SDS011;9019;48.132;-1.210;2022-09-02T00:46:08;5.87;;;3.70;;
17790;SDS011;9019;48.132;-1.210;2022-09-02T00:48:38;7.03;;;4.07;;
17790;SDS011;9019;48.132;-1.210;2022-09-02T00:51:07;6.93;;;3.80;;
17790;SDS011;9019;48.132;-1.210;2022-09-02T00:53:36;5.73;;;4.07;;
17790;SDS011;9019;48.132;-1.210;2022-09-02T00:56:05;8.03;;;4.20;;
17790;SDS011;9019;48.132;-1.210;2022-09-02T00:58:37;4.80;;;3.83;;
17790;SDS011;9019;48.132;-1.210;2022-09-02T01:01:05;4.63;;;4.00;;
17790;SDS011;9019;48.132;-1.210;2022-09-02T01:03:37;5.87;;;4.00;;
17790;SDS011;9019;48.132;-1.210;2022-09-02T01:06:05;8.00;;;4.07;;
17790;SDS011;9019;48.132;-1.210;2022-09-02T01:08:34;4.10;;;3.70;;
17790;SDS011;9019;48.132;-1.210;2022-09-02T01:11:04;5.63;;;4.07;;
17790;SDS011;9019;48.132;-1.210;2022-09-02T01:13:35;4.80;;;3.83;;
17790;SDS011;9019;48.132;-1.210;2022-09-02T01:16:05;4.67;;;3.90;;
17790;SDS011;9019;48.132;-1.210;2022-09-02T01:18:37;4.87;;;4.07;;
17790;SDS011;9019;48.132;-1.210;2022-09-02T01:21:05;4.73;;;3.80;;
17790;SDS011;9019;48.132;-1.210;2022-09-02T01:23:37;5.13;;;4.00;;
17790;SDS011;9019;48.132;-1.210;2022-09-02T01:26:06;8.33;;;4.10;;
17790;SDS011;9019;48.132;-1.210;2022-09-02T01:28:35;6.20;;;4.07;;
17790;SDS011;9019;48.132;-1.210;2022-09-02T01:31:13;5.50;;;3.83;;
17790;SDS011;9019;48.132;-1.210;2022-09-02T01:33:44;6.43;;;3.83;;
17790;SDS011;9019;48.132;-1.210;2022-09-02T01:36:12;4.37;;;3.80;;
17790;SDS011;9019;48.132;-1.210;2022-09-02T01:38:41;6.20;;;4.07;;
17790;SDS011;9019;48.132;-1.210;2022-09-02T01:41:08;5.03;;;3.97;;
17790;SDS011;9019;48.132;-1.210;2022-09-02T01:43:36;5.93;;;4.00;;
17790;SDS011;9019;48.132;-1.210;2022-09-02T01:46:05;6.90;;;4.00;;
17790;SDS011;9019;48.132;-1.210;2022-09-02T01:48:33;6.77;;;4.20;;
17790;SDS011;9019;48.132;-1.210;2022-09-02T01:51:01;6.67;;;3.77;;
17790;SDS011;9019;48.132;-1.210;2022-09-02T01:53:30;4.70;;;3.63;;
17790;SDS011;9019;48.132;-1.210;2022-09-02T01:55:59;3.93;;;3.53;;
17790;SDS011;9019;48.132;-1.210;2022-09-02T01:58:28;4.67;;;3.60;;
17790;SDS011;9019;48.132;-1.210;2022-09-02T02:00:57;4.97;;;4.03;;
17790;SDS011;9019;48.132;-1.210;2022-09-02T02:03:25;7.03;;;3.40;;
17790;SDS011;9019;48.132;-1.210;2022-09-02T02:05:54;5.03;;;3.53;;
17790;SDS011;9019;48.132;-1.210;2022-09-02T02:08:22;5.37;;;3.60;;
17790;SDS011;9019;48.132;-1.210;2022-09-02T02:10:50;4.67;;;4.10;;
17790;SDS011;9019;48.132;-1.210;2022-09-02T02:13:19;5.37;;;3.93;;
17790;SDS011;9019;48.132;-1.210;2022-09-02T02:15:47;5.97;;;4.00;;
17790;SDS011;9019;48.132;-1.210;2022-09-02T02:18:14;5.17;;;4.23;;
17790;SDS011;9019;48.132;-1.210;2022-09-02T02:20:41;5.87;;;4.30;;
17790;SDS011;9019;48.132;-1.210;2022-09-02T02:23:09;5.57;;;4.50;;
17790;SDS011;9019;48.132;-1.210;2022-09-02T02:25:36;5.50;;;4.23;;
17790;SDS011;9019;48.132;-1.210;2022-09-02T02:28:04;6.97;;;4.53;;
17790;SDS011;9019;48.132;-1.210;2022-09-02T02:30:34;5.77;;;4.53;;
17790;SDS011;9019;48.132;-1.210;2022-09-02T02:33:03;7.00;;;4.33;;
17790;SDS011;9019;48.132;-1.210;2022-09-02T02:35:32;7.93;;;4.17;;
17790;SDS011;9019;48.132;-1.210;2022-09-02T02:38:02;5.87;;;4.10;;
17790;SDS011;9019;48.132;-1.210;2022-09-02T02:40:32;6.60;;;4.33;;
17790;SDS011;9019;48.132;-1.210;2022-09-02T02:43:01;9.87;;;5.00;;
17790;SDS011;9019;48.132;-1.210;2022-09-02T02:45:29;7.03;;;4.17;;
17790;SDS011;9019;48.132;-1.210;2022-09-02T02:47:59;5.47;;;4.00;;
17790;SDS011;9019;48.132;-1.210;2022-09-02T02:50:27;5.47;;;4.30;;
17790;SDS011;9019;48.132;-1.210;2022-09-02T02:52:56;8.20;;;4.30;;
17790;SDS011;9019;48.132;-1.210;2022-09-02T02:55:26;6.40;;;3.87;;
17790;SDS011;9019;48.132;-1.210;2022-09-02T02:57:54;6.80;;;3.90;;
17790;SDS011;9019;48.132;-1.210;2022-09-02T03:00:22;5.63;;;4.20;;
17790;SDS011;9019;48.132;-1.210;2022-09-02T03:02:49;5.87;;;3.83;;
17790;SDS011;9019;48.132;-1.210;2022-09-02T03:05:18;5.13;;;4.00;;
17790;SDS011;9019;48.132;-1.210;2022-09-02T03:07:45;7.60;;;4.33;;
17790;SDS011;9019;48.132;-1.210;2022-09-02T03:10:12;5.40;;;3.93;;
17790;SDS011;9019;48.132;-1.210;2022-09-02T03:12:40;5.90;;;4.50;;
17790;SDS011;9019;48.132;-1.210;2022-09-02T03:15:11;6.63;;;4.23;;
17790;SDS011;9019;48.132;-1.210;2022-09-02T03:17:39;5.27;;;4.10;;
17790;SDS011;9019;48.132;-1.210;2022-09-02T03:20:07;6.50;;;4.50;;
17790;SDS011;9019;48.132;-1.210;2022-09-02T03:22:35;6.13;;;4.83;;
17790;SDS011;9019;48.132;-1.210;2022-09-02T03:25:03;7.83;;;4.67;;
17790;SDS011;9019;48.132;-1.210;2022-09-02T03:27:31;5.43;;;4.90;;
17790;SDS011;9019;48.132;-1.210;2022-09-02T03:29:59;7.40;;;5.10;;
17790;SDS011;9019;48.132;-1.210;2022-09-02T03:32:26;5.50;;;4.93;;
17790;SDS011;9019;48.132;-1.210;2022-09-02T03:34:53;7.70;;;4.90;;
17790;SDS011;9019;48.132;-1.210;2022-09-02T03:37:20;6.80;;;4.87;;
17790;SDS011;9019;48.132;-1.210;2022-09-02T03:39:49;6.07;;;5.23;;
17790;SDS011;9019;48.132;-1.210;2022-09-02T03:42:16;5.60;;;5.10;;
17790;SDS011;9019;48.132;-1.210;2022-09-02T03:44:44;6.10;;;5.17;;
17790;SDS011;9019;48.132;-1.210;2022-09-02T03:47:11;5.77;;;4.77;;
17790;SDS011;9019;48.132;-1.210;2022-09-02T03:49:41;7.10;;;5.90;;
17790;SDS011;9019;48.132;-1.210;2022-09-02T03:52:08;7.10;;;5.60;;
17790;SDS011;9019;48.132;-1.210;2022-09-02T03:54:35;9.77;;;5.27;;
17790;SDS011;9019;48.132;-1.210;2022-09-02T03:57:04;6.90;;;5.43;;
17790;SDS011;9019;48.132;-1.210;2022-09-02T03:59:31;6.43;;;5.30;;
17790;SDS011;9019;48.132;-1.210;2022-09-02T04:01:59;8.63;;;5.27;;
17790;SDS011;9019;48.132;-1.210;2022-09-02T04:04:27;7.07;;;5.03;;
17790;SDS011;9019;48.132;-1.210;2022-09-02T04:06:54;7.40;;;5.33;;
17790;SDS011;9019;48.132;-1.210;2022-09-02T04:09:22;6.23;;;5.17;;
17790;SDS011;9019;48.132;-1.210;2022-09-02T04:11:49;5.77;;;5.13;;
17790;SDS011;9019;48.132;-1.210;2022-09-02T04:14:17;6.97;;;5.20;;
17790;SDS011;9019;48.132;-1.210;2022-09-02T04:16:45;9.07;;;5.60;;
17790;SDS011;9019;48.132;-1.210;2022-09-02T04:19:12;7.30;;;5.43;;
17790;SDS011;9019;48.132;-1.210;2022-09-02T04:21:40;6.77;;;5.53;;
17790;SDS011;9019;48.132;-1.210;2022-09-02T04:24:08;8.00;;;5.73;;
17790;SDS011;9019;48.132;-1.210;2022-09-02T04:26:36;9.30;;;5.67;;
17790;SDS011;9019;48.132;-1.210;2022-09-02T04:29:04;7.47;;;5.83;;
17790;SDS011;9019;48.132;-1.210;2022-09-02T04:31:33;8.90;;;6.07;;
17790;SDS011;9019;48.132;-1.210;2022-09-02T04:34:00;9.07;;;6.00;;
17790;SDS011;9019;48.132;-1.210;2022-09-02T04:36:28;10.17;;;6.37;;
17790;SDS011;9019;48.132;-1.210;2022-09-02T04:38:56;9.30;;;7.00;;
17790;SDS011;9019;48.132;-1.210;2022-09-02T04:41:24;8.50;;;6.40;;
17790;SDS011;9019;48.132;-1.210;2022-09-02T04:43:53;10.43;;;6.00;;
17790;SDS011;9019;48.132;-1.210;2022-09-02T04:46:20;9.30;;;6.50;;
17790;SDS011;9019;48.132;-1.210;2022-09-02T04:48:49;7.90;;;6.30;;
17790;SDS011;9019;48.132;-1.210;2022-09-02T04:51:17;10.03;;;6.83;;
17790;SDS011;9019;48.132;-1.210;2022-09-02T04:53:45;8.33;;;5.83;;
17790;SDS011;9019;48.132;-1.210;2022-09-02T04:56:15;8.83;;;6.17;;
17790;SDS011;9019;48.132;-1.210;2022-09-02T04:58:42;9.27;;;6.40;;
17790;SDS011;9019;48.132;-1.210;2022-09-02T05:01:10;8.00;;;6.03;;
17790;SDS011;9019;48.132;-1.210;2022-09-02T05:03:39;10.00;;;6.70;;
17790;SDS011;9019;48.132;-1.210;2022-09-02T05:06:09;8.00;;;6.50;;
17790;SDS011;9019;48.132;-1.210;2022-09-02T05:08:36;8.20;;;6.63;;
17790;SDS011;9019;48.132;-1.210;2022-09-02T05:11:05;8.67;;;6.23;;
17790;SDS011;9019;48.132;-1.210;2022-09-02T05:13:32;7.70;;;6.53;;
17790;SDS011;9019;48.132;-1.210;2022-09-02T05:16:00;8.63;;;6.70;;
17790;SDS011;9019;48.132;-1.210;2022-09-02T05:18:27;9.60;;;6.80;;
17790;SDS011;9019;48.132;-1.210;2022-09-02T05:20:55;8.63;;;6.77;;
17790;SDS011;9019;48.132;-1.210;2022-09-02T05:23:23;11.73;;;7.10;;
17790;SDS011;9019;48.132;-1.210;2022-09-02T05:25:50;11.03;;;7.20;;
17790;SDS011;9019;48.132;-1.210;2022-09-02T05:28:18;8.00;;;6.37;;
17790;SDS011;9019;48.132;-1.210;2022-09-02T05:30:45;9.80;;;6.97;;
17790;SDS011;9019;48.132;-1.210;2022-09-02T05:33:12;8.73;;;6.90;;
17790;SDS011;9019;48.132;-1.210;2022-09-02T05:35:40;8.00;;;7.00;;
17790;SDS011;9019;48.132;-1.210;2022-09-02T05:38:07;9.97;;;6.80;;
17790;SDS011;9019;48.132;-1.210;2022-09-02T05:40:36;8.93;;;6.70;;
17790;SDS011;9019;48.132;-1.210;2022-09-02T05:43:04;10.57;;;7.40;;
17790;SDS011;9019;48.132;-1.210;2022-09-02T05:45:31;10.40;;;6.90;;
17790;SDS011;9019;48.132;-1.210;2022-09-02T05:47:59;7.63;;;6.80;;
17790;SDS011;9019;48.132;-1.210;2022-09-02T05:50:47;9.17;;;6.93;;
17790;SDS011;9019;48.132;-1.210;2022-09-02T05:53:14;10.93;;;7.30;;
17790;SDS011;9019;48.132;-1.210;2022-09-02T05:55:43;7.80;;;6.93;;
17790;SDS011;9019;48.132;-1.210;2022-09-02T05:58:10;9.30;;;7.53;;
17790;SDS011;9019;48.132;-1.210;2022-09-02T06:00:38;8.43;;;6.90;;
17790;SDS011;9019;48.132;-1.210;2022-09-02T06:03:05;9.10;;;7.27;;
17790;SDS011;9019;48.132;-1.210;2022-09-02T06:05:32;8.10;;;7.30;;
17790;SDS011;9019;48.132;-1.210;2022-09-02T06:08:01;7.87;;;7.00;;
17790;SDS011;9019;48.132;-1.210;2022-09-02T06:10:29;10.27;;;7.30;;
17790;SDS011;9019;48.132;-1.210;2022-09-02T06:12:57;8.43;;;7.57;;
17790;SDS011;9019;48.132;-1.210;2022-09-02T06:15:24;9.50;;;7.37;;
17790;SDS011;9019;48.132;-1.210;2022-09-02T06:17:54;10.10;;;7.33;;
17790;SDS011;9019;48.132;-1.210;2022-09-02T06:20:23;9.97;;;7.77;;
17790;SDS011;9019;48.132;-1.210;2022-09-02T06:22:53;11.97;;;7.87;;
17790;SDS011;9019;48.132;-1.210;2022-09-02T06:25:20;8.93;;;7.23;;
17790;SDS011;9019;48.132;-1.210;2022-09-02T06:27:47;9.23;;;7.60;;
17790;SDS011;9019;48.132;-1.210;2022-09-02T06:30:16;9.80;;;7.73;;
17790;SDS011;9019;48.132;-1.210;2022-09-02T06:32:43;10.03;;;8.30;;
17790;SDS011;9019;48.132;-1.210;2022-09-02T06:35:11;9.93;;;7.93;;
17790;SDS011;9019;48.132;-1.210;2022-09-02T06:37:38;10.37;;;8.83;;
17790;SDS011;9019;48.132;-1.210;2022-09-02T06:40:06;11.10;;;8.90;;
17790;SDS011;9019;48.132;-1.210;2022-09-02T06:42:34;12.53;;;10.13;;
17790;SDS011;9019;48.132;-1.210;2022-09-02T06:45:01;10.57;;;8.27;;
17790;SDS011;9019;48.132;-1.210;2022-09-02T06:47:30;11.93;;;8.53;;
17790;SDS011;9019;48.132;-1.210;2022-09-02T06:49:57;8.77;;;7.88;;
17790;SDS011;9019;48.132;-1.210;2022-09-02T06:52:24;11.07;;;8.52;;
17790;SDS011;9019;48.132;-1.210;2022-09-02T06:54:52;11.93;;;8.25;;
17790;SDS011;9019;48.132;-1.210;2022-09-02T06:57:19;11.67;;;8.00;;
17790;SDS011;9019;48.132;-1.210;2022-09-02T06:59:47;10.98;;;8.10;;
17790;SDS011;9019;48.132;-1.210;2022-09-02T07:02:14;10.50;;;7.93;;
17790;SDS011;9019;48.132;-1.210;2022-09-02T07:04:42;11.77;;;8.30;;
17790;SDS011;9019;48.132;-1.210;2022-09-02T07:07:27;10.80;;;8.15;;
17790;SDS011;9019;48.132;-1.210;2022-09-02T07:09:54;9.73;;;7.97;;
17790;SDS011;9019;48.132;-1.210;2022-09-02T07:12:21;10.15;;;8.70;;
17790;SDS011;9019;48.132;-1.210;2022-09-02T07:14:51;8.95;;;8.05;;
17790;SDS011;9019;48.132;-1.210;2022-09-02T07:17:18;10.60;;;8.32;;
17790;SDS011;9019;48.132;-1.210;2022-09-02T07:19:48;11.15;;;8.30;;
17790;SDS011;9019;48.132;-1.210;2022-09-02T07:22:16;9.52;;;8.13;;
17790;SDS011;9019;48.132;-1.210;2022-09-02T07:24:43;9.55;;;8.13;;
17790;SDS011;9019;48.132;-1.210;2022-09-02T07:27:11;10.45;;;8.68;;
17790;SDS011;9019;48.132;-1.210;2022-09-02T07:29:38;9.75;;;7.40;;
17790;SDS011;9019;48.132;-1.210;2022-09-02T07:32:08;9.63;;;7.75;;
17790;SDS011;9019;48.132;-1.210;2022-09-02T07:34:35;10.38;;;7.65;;
17790;SDS011;9019;48.132;-1.210;2022-09-02T07:37:04;11.65;;;7.53;;
17790;SDS011;9019;48.132;-1.210;2022-09-02T07:39:31;7.03;;;6.32;;
17790;SDS011;9019;48.132;-1.210;2022-09-02T07:41:58;6.05;;;5.45;;
17790;SDS011;9019;48.132;-1.210;2022-09-02T07:44:26;6.88;;;5.28;;
17790;SDS011;9019;48.132;-1.210;2022-09-02T07:46:53;6.15;;;4.55;;
17790;SDS011;9019;48.132;-1.210;2022-09-02T07:49:21;5.10;;;4.60;;
17790;SDS011;9019;48.132;-1.210;2022-09-02T07:51:48;5.20;;;4.60;;
17790;SDS011;9019;48.132;-1.210;2022-09-02T07:54:18;6.85;;;5.15;;
17790;SDS011;9019;48.132;-1.210;2022-09-02T07:56:46;5.57;;;4.88;;
17790;SDS011;9019;48.132;-1.210;2022-09-02T07:59:13;5.60;;;5.10;;
17790;SDS011;9019;48.132;-1.210;2022-09-02T08:01:41;6.07;;;4.90;;
17790;SDS011;9019;48.132;-1.210;2022-09-02T08:04:08;5.55;;;4.90;;
17790;SDS011;9019;48.132;-1.210;2022-09-02T08:06:36;9.18;;;5.70;;
17790;SDS011;9019;48.132;-1.210;2022-09-02T08:09:03;6.32;;;5.50;;
17790;SDS011;9019;48.132;-1.210;2022-09-02T08:11:36;6.32;;;5.25;;
17790;SDS011;9019;48.132;-1.210;2022-09-02T08:14:04;6.70;;;6.03;;
17790;SDS011;9019;48.132;-1.210;2022-09-02T08:16:32;6.90;;;5.55;;
17790;SDS011;9019;48.132;-1.210;2022-09-02T08:18:59;6.65;;;5.40;;
17790;SDS011;9019;48.132;-1.210;2022-09-02T08:21:26;7.82;;;5.28;;
17790;SDS011;9019;48.132;-1.210;2022-09-02T08:23:54;7.95;;;5.05;;
17790;SDS011;9019;48.132;-1.210;2022-09-02T08:26:22;6.30;;;5.70;;
17790;SDS011;9019;48.132;-1.210;2022-09-02T08:28:53;6.35;;;5.35;;
17790;SDS011;9019;48.132;-1.210;2022-09-02T08:31:21;5.40;;;4.93;;
17790;SDS011;9019;48.132;-1.210;2022-09-02T08:33:48;7.72;;;5.38;;
17790;SDS011;9019;48.132;-1.210;2022-09-02T08:36:15;6.30;;;5.70;;
17790;SDS011;9019;48.132;-1.210;2022-09-02T08:38:43;5.78;;;5.28;;
17790;SDS011;9019;48.132;-1.210;2022-09-02T08:41:10;5.82;;;4.63;;
17790;SDS011;9019;48.132;-1.210;2022-09-02T08:43:38;5.40;;;4.90;;
17790;SDS011;9019;48.132;-1.210;2022-09-02T08:46:09;6.43;;;5.30;;
17790;SDS011;9019;48.132;-1.210;2022-09-02T08:48:40;5.72;;;5.18;;
17790;SDS011;9019;48.132;-1.210;2022-09-02T08:51:10;6.82;;;5.32;;
17790;SDS011;9019;48.132;-1.210;2022-09-02T08:53:41;6.25;;;5.47;;
17790;SDS011;9019;48.132;-1.210;2022-09-02T08:56:10;5.50;;;5.10;;
17790;SDS011;9019;48.132;-1.210;2022-09-02T08:58:40;6.35;;;5.60;;
17790;SDS011;9019;48.132;-1.210;2022-09-02T09:01:12;8.20;;;6.70;;
17790;SDS011;9019;48.132;-1.210;2022-09-02T09:03:42;6.50;;;5.95;;
17790;SDS011;9019;48.132;-1.210;2022-09-02T09:06:16;7.35;;;6.35;;
17790;SDS011;9019;48.132;-1.210;2022-09-02T09:08:48;6.97;;;6.28;;
17790;SDS011;9019;48.132;-1.210;2022-09-02T09:11:18;8.10;;;6.70;;
17790;SDS011;9019;48.132;-1.210;2022-09-02T09:13:53;7.70;;;6.68;;
17790;SDS011;9019;48.132;-1.210;2022-09-02T09:16:29;7.95;;;7.03;;
17790;SDS011;9019;48.132;-1.210;2022-09-02T09:18:59;7.40;;;6.75;;
17790;SDS011;9019;48.132;-1.210;2022-09-02T09:21:26;9.63;;;7.38;;
17790;SDS011;9019;48.132;-1.210;2022-09-02T09:23:57;9.63;;;7.90;;
17790;SDS011;9019;48.132;-1.210;2022-09-02T09:26:27;8.30;;;7.45;;
17790;SDS011;9019;48.132;-1.210;2022-09-02T09:28:54;8.27;;;7.38;;
17790;SDS011;9019;48.132;-1.210;2022-09-02T09:31:26;9.80;;;8.35;;
17790;SDS011;9019;48.132;-1.210;2022-09-02T09:33:59;10.63;;;8.20;;
17790;SDS011;9019;48.132;-1.210;2022-09-02T09:39:16;9.55;;;8.60;;
17790;SDS011;9019;48.132;-1.210;2022-09-02T09:41:43;9.68;;;8.68;;
17790;SDS011;9019;48.132;-1.210;2022-09-02T09:44:13;12.48;;;11.18;;
17790;SDS011;9019;48.132;-1.210;2022-09-02T09:46:59;11.77;;;9.52;;
17790;SDS011;9019;48.132;-1.210;2022-09-02T09:49:31;12.55;;;11.25;;
17790;SDS011;9019;48.132;-1.210;2022-09-02T09:51:59;12.57;;;10.35;;
17790;SDS011;9019;48.132;-1.210;2022-09-02T09:54:26;10.70;;;9.70;;
17790;SDS011;9019;48.132;-1.210;2022-09-02T09:56:53;12.13;;;10.85;;
17790;SDS011;9019;48.132;-1.210;2022-09-02T09:59:33;13.05;;;10.18;;
17790;SDS011;9019;48.132;-1.210;2022-09-02T10:02:02;12.32;;;10.90;;
17790;SDS011;9019;48.132;-1.210;2022-09-02T10:04:31;12.68;;;11.43;;
17790;SDS011;9019;48.132;-1.210;2022-09-02T10:06:58;11.48;;;10.32;;
17790;SDS011;9019;48.132;-1.210;2022-09-02T10:09:30;11.65;;;10.45;;
17790;SDS011;9019;48.132;-1.210;2022-09-02T10:11:58;12.52;;;10.90;;
17790;SDS011;9019;48.132;-1.210;2022-09-02T10:14:26;10.65;;;8.75;;
17790;SDS011;9019;48.132;-1.210;2022-09-02T10:16:59;9.55;;;8.55;;
17790;SDS011;9019;48.132;-1.210;2022-09-02T10:19:30;12.15;;;10.95;;
17790;SDS011;9019;48.132;-1.210;2022-09-02T10:22:06;11.45;;;10.30;;
17790;SDS011;9019;48.132;-1.210;2022-09-02T10:24:43;10.90;;;9.82;;
17790;SDS011;9019;48.132;-1.210;2022-09-02T10:27:14;12.82;;;10.70;;
17790;SDS011;9019;48.132;-1.210;2022-09-02T10:29:47;12.10;;;10.73;;
17790;SDS011;9019;48.132;-1.210;2022-09-02T10:32:21;12.57;;;10.82;;
17790;SDS011;9019;48.132;-1.210;2022-09-02T10:34:52;10.60;;;9.60;;
17790;SDS011;9019;48.132;-1.210;2022-09-02T10:37:25;10.75;;;9.77;;
17790;SDS011;9019;48.132;-1.210;2022-09-02T10:39:57;10.32;;;9.35;;
17790;SDS011;9019;48.132;-1.210;2022-09-02T10:42:27;12.15;;;10.07;;
17790;SDS011;9019;48.132;-1.210;2022-09-02T10:44:59;13.80;;;10.48;;
17790;SDS011;9019;48.132;-1.210;2022-09-02T10:47:30;10.75;;;9.70;;
17790;SDS011;9019;48.132;-1.210;2022-09-02T10:50:03;12.02;;;10.32;;
17790;SDS011;9019;48.132;-1.210;2022-09-02T10:52:41;10.70;;;9.65;;
17790;SDS011;9019;48.132;-1.210;2022-09-02T10:55:12;10.63;;;9.02;;
17790;SDS011;9019;48.132;-1.210;2022-09-02T10:57:44;11.40;;;9.57;;
17790;SDS011;9019;48.132;-1.210;2022-09-02T11:00:13;8.70;;;7.80;;
17790;SDS011;9019;48.132;-1.210;2022-09-02T11:02:41;9.27;;;8.27;;
17790;SDS011;9019;48.132;-1.210;2022-09-02T11:05:10;9.48;;;8.27;;
17790;SDS011;9019;48.132;-1.210;2022-09-02T11:07:42;9.75;;;8.45;;
17790;SDS011;9019;48.132;-1.210;2022-09-02T11:10:10;9.88;;;8.10;;
17790;SDS011;9019;48.132;-1.210;2022-09-02T11:12:44;10.18;;;9.18;;
17790;SDS011;9019;48.132;-1.210;2022-09-02T11:15:14;9.43;;;8.52;;
17790;SDS011;9019;48.132;-1.210;2022-09-02T11:17:44;8.82;;;8.02;;
17790;SDS011;9019;48.132;-1.210;2022-09-02T11:20:15;10.85;;;9.85;;
17790;SDS011;9019;48.132;-1.210;2022-09-02T11:22:51;11.73;;;9.07;;
17790;SDS011;9019;48.132;-1.210;2022-09-02T11:25:21;10.20;;;9.20;;
17790;SDS011;9019;48.132;-1.210;2022-09-02T11:27:51;10.23;;;9.25;;
17790;SDS011;9019;48.132;-1.210;2022-09-02T11:30:21;9.05;;;8.25;;
17790;SDS011;9019;48.132;-1.210;2022-09-02T11:32:51;9.05;;;8.15;;
17790;SDS011;9019;48.132;-1.210;2022-09-02T11:35:21;9.98;;;8.85;;
17790;SDS011;9019;48.132;-1.210;2022-09-02T11:37:53;9.68;;;8.63;;
17790;SDS011;9019;48.132;-1.210;2022-09-02T11:40:23;9.85;;;8.98;;
17790;SDS011;9019;48.132;-1.210;2022-09-02T11:42:56;8.32;;;7.53;;
17790;SDS011;9019;48.132;-1.210;2022-09-02T11:45:33;8.88;;;7.60;;
17790;SDS011;9019;48.132;-1.210;2022-09-02T11:48:08;8.10;;;7.25;;
17790;SDS011;9019;48.132;-1.210;2022-09-02T11:50:50;6.80;;;6.10;;
17790;SDS011;9019;48.132;-1.210;2022-09-02T11:53:22;7.38;;;5.93;;
17790;SDS011;9019;48.132;-1.210;2022-09-02T11:55:52;7.20;;;6.50;;
17790;SDS011;9019;48.132;-1.210;2022-09-02T11:58:30;6.80;;;6.10;;
17790;SDS011;9019;48.132;-1.210;2022-09-02T12:01:00;8.93;;;5.80;;
17790;SDS011;9019;48.132;-1.210;2022-09-02T12:03:30;7.60;;;6.78;;
17790;SDS011;9019;48.132;-1.210;2022-09-02T12:06:05;7.45;;;6.68;;
17790;SDS011;9019;48.132;-1.210;2022-09-02T12:11:34;7.63;;;6.82;;
17790;SDS011;9019;48.132;-1.210;2022-09-02T12:14:06;7.70;;;7.00;;
17790;SDS011;9019;48.132;-1.210;2022-09-02T12:16:39;8.15;;;6.55;;
17790;SDS011;9019;48.132;-1.210;2022-09-02T12:19:17;7.07;;;5.97;;
17790;SDS011;9019;48.132;-1.210;2022-09-02T12:24:47;8.07;;;7.28;;
17790;SDS011;9019;48.132;-1.210;2022-09-02T12:30:03;6.63;;;5.80;;
17790;SDS011;9019;48.132;-1.210;2022-09-02T12:38:24;6.25;;;5.05;;
17790;SDS011;9019;48.132;-1.210;2022-09-02T12:40:53;6.43;;;4.55;;
17790;SDS011;9019;48.132;-1.210;2022-09-02T12:43:23;5.57;;;5.00;;
17790;SDS011;9019;48.132;-1.210;2022-09-02T12:45:54;5.75;;;5.10;;
17790;SDS011;9019;48.132;-1.210;2022-09-02T12:48:24;6.03;;;4.78;;
17790;SDS011;9019;48.132;-1.210;2022-09-02T12:50:54;6.47;;;5.28;;
17790;SDS011;9019;48.132;-1.210;2022-09-02T12:53:31;7.63;;;6.15;;
17790;SDS011;9019;48.132;-1.210;2022-09-02T12:56:01;6.63;;;5.95;;
17790;SDS011;9019;48.132;-1.210;2022-09-02T12:58:32;7.18;;;6.20;;
17790;SDS011;9019;48.132;-1.210;2022-09-02T13:01:03;8.50;;;6.57;;
17790;SDS011;9019;48.132;-1.210;2022-09-02T13:03:38;6.55;;;5.95;;
17790;SDS011;9019;48.132;-1.210;2022-09-02T13:06:09;7.00;;;5.57;;
17790;SDS011;9019;48.132;-1.210;2022-09-02T13:11:30;6.40;;;5.78;;
17790;SDS011;9019;48.132;-1.210;2022-09-02T13:14:18;7.00;;;6.15;;
17790;SDS011;9019;48.132;-1.210;2022-09-02T13:16:52;8.18;;;6.10;;
17790;SDS011;9019;48.132;-1.210;2022-09-02T13:19:24;7.85;;;6.03;;
17790;SDS011;9019;48.132;-1.210;2022-09-02T13:22:00;6.28;;;5.53;;
17790;SDS011;9019;48.132;-1.210;2022-09-02T13:27:24;7.78;;;6.32;;
17790;SDS011;9019;48.132;-1.210;2022-09-02T13:30:02;6.35;;;5.75;;
17790;SDS011;9019;48.132;-1.210;2022-09-02T13:32:32;9.10;;;8.18;;
17790;SDS011;9019;48.132;-1.210;2022-09-02T13:35:02;9.18;;;8.27;;
17790;SDS011;9019;48.132;-1.210;2022-09-02T13:37:32;8.50;;;7.60;;
17790;SDS011;9019;48.132;-1.210;2022-09-02T13:40:00;8.73;;;7.82;;
17790;SDS011;9019;48.132;-1.210;2022-09-02T13:42:30;8.13;;;7.32;;
17790;SDS011;9019;48.132;-1.210;2022-09-02T13:45:13;7.47;;;6.63;;
17790;SDS011;9019;48.132;-1.210;2022-09-02T13:47:43;7.78;;;6.00;;
17790;SDS011;9019;48.132;-1.210;2022-09-02T13:50:12;6.65;;;5.38;;
17790;SDS011;9019;48.132;-1.210;2022-09-02T13:52:40;6.18;;;5.10;;
17790;SDS011;9019;48.132;-1.210;2022-09-02T13:55:08;6.65;;;6.05;;
17790;SDS011;9019;48.132;-1.210;2022-09-02T13:57:36;7.15;;;6.45;;
17790;SDS011;9019;48.132;-1.210;2022-09-02T14:00:05;7.82;;;5.75;;
17790;SDS011;9019;48.132;-1.210;2022-09-02T14:02:33;8.57;;;6.38;;
17790;SDS011;9019;48.132;-1.210;2022-09-02T14:05:03;5.18;;;4.68;;
17790;SDS011;9019;48.132;-1.210;2022-09-02T14:07:31;6.80;;;6.10;;
17790;SDS011;9019;48.132;-1.210;2022-09-02T14:10:02;7.53;;;6.13;;
17790;SDS011;9019;48.132;-1.210;2022-09-02T14:12:30;5.72;;;5.20;;
17790;SDS011;9019;48.132;-1.210;2022-09-02T14:14:58;6.60;;;4.85;;
17790;SDS011;9019;48.132;-1.210;2022-09-02T14:17:26;6.68;;;4.82;;
17790;SDS011;9019;48.132;-1.210;2022-09-02T14:20:08;5.32;;;4.88;;
17790;SDS011;9019;48.132;-1.210;2022-09-02T14:22:35;4.97;;;4.18;;
17790;SDS011;9019;48.132;-1.210;2022-09-02T14:25:07;5.07;;;3.47;;
17790;SDS011;9019;48.132;-1.210;2022-09-02T14:27:35;4.43;;;4.03;;
17790;SDS011;9019;48.132;-1.210;2022-09-02T14:30:03;4.13;;;3.47;;
17790;SDS011;9019;48.132;-1.210;2022-09-02T14:32:33;5.03;;;4.20;;
17790;SDS011;9019;48.132;-1.210;2022-09-02T14:35:09;4.28;;;2.95;;
17790;SDS011;9019;48.132;-1.210;2022-09-02T14:37:47;4.38;;;3.60;;
17790;SDS011;9019;48.132;-1.210;2022-09-02T14:40:15;5.35;;;4.20;;
17790;SDS011;9019;48.132;-1.210;2022-09-02T14:42:44;5.10;;;4.40;;
17790;SDS011;9019;48.132;-1.210;2022-09-02T14:45:11;6.72;;;5.45;;
17790;SDS011;9019;48.132;-1.210;2022-09-02T14:47:39;7.47;;;5.18;;
17790;SDS011;9019;48.132;-1.210;2022-09-02T14:50:09;7.07;;;5.75;;
17790;SDS011;9019;48.132;-1.210;2022-09-02T14:52:43;7.32;;;6.28;;
17790;SDS011;9019;48.132;-1.210;2022-09-02T14:55:43;7.13;;;4.93;;
17790;SDS011;9019;48.132;-1.210;2022-09-02T14:58:10;8.38;;;7.38;;
17790;SDS011;9019;48.132;-1.210;2022-09-02T15:00:38;6.70;;;5.80;;
17790;SDS011;9019;48.132;-1.210;2022-09-02T15:03:05;6.93;;;4.68;;
17790;SDS011;9019;48.132;-1.210;2022-09-02T15:05:33;5.28;;;4.70;;
17790;SDS011;9019;48.132;-1.210;2022-09-02T15:08:01;7.30;;;5.28;;
17790;SDS011;9019;48.132;-1.210;2022-09-02T15:10:28;6.93;;;6.20;;
17790;SDS011;9019;48.132;-1.210;2022-09-02T15:12:55;7.97;;;6.63;;
17790;SDS011;9019;48.132;-1.210;2022-09-02T15:15:23;7.75;;;6.90;;
17790;SDS011;9019;48.132;-1.210;2022-09-02T15:17:51;6.90;;;6.20;;
17790;SDS011;9019;48.132;-1.210;2022-09-02T15:20:19;7.75;;;5.28;;
17790;SDS011;9019;48.132;-1.210;2022-09-02T15:22:48;7.88;;;4.90;;